Terminal Aerodrome Forecast
Issued by NWS Green Bay, WI

Home | Current Version | Previous Version | Graphics & Text | Print | Product List | Glossary On
Versions: 1 2 3 4 5 6 7 8 9 10 11 12 13 14 15 16 17 18 19 20 21 22 23
000
FTUS43 KGRB 211355 AAA
TAFGRB
TAF AMD
KGRB 211355Z 2114/2212 00000KT 2SM BR OVC250
      TEMPO 2114/2115 1/2SM FZFG
     FM211500 VRB03KT 6SM BR BKN250
     FM212200 06005KT P6SM OVC080
     FM220500 04010KT 6SM -RASN BR OVC012
     FM220800 03012KT 1SM -RASN BR OVC005=

USA.gov is the U.S. government's official web portal to all federal, state and local government web resources and services.